Time;durP1;ratioP1;P1;durP2;ratioP2;P2;SDS_P1;SDS_P2;PMS_P1;PMS_P2;Temp;Humidity;BMP_temperature;BMP_pressure;BME280_temperature;BME280_humidity;BME280_pressure;Samples;Min_cycle;Max_cycle;Signal;HPM_P1;HPM_P2
2022/06/15 00:00:37;;;;;;;4.80;2.00;;;;;;;14.53;65.51;100834.13;5032147;28;20025;-69
2022/06/15 00:03:03;;;;;;;5.53;2.10;;;;;;;14.52;65.57;100842.97;5032305;28;20108;-69
2022/06/15 00:05:29;;;;;;;3.63;2.10;;;;;;;14.52;65.67;100848.25;5032390;28;20064;-69
2022/06/15 00:07:55;;;;;;;5.07;2.10;;;;;;;14.47;65.83;100838.69;5032555;28;20033;-69
2022/06/15 00:10:21;;;;;;;5.78;2.08;;;;;;;14.52;65.59;100842.97;5032483;28;20029;-70
2022/06/15 00:12:47;;;;;;;4.97;2.25;;;;;;;14.51;65.70;100840.34;5032660;28;20045;-70
2022/06/15 00:15:13;;;;;;;4.20;2.40;;;;;;;14.51;65.81;100838.56;5032434;28;20044;-68
2022/06/15 00:17:39;;;;;;;5.13;2.05;;;;;;;14.47;65.98;100836.91;5032553;28;20056;-69
2022/06/15 00:20:05;;;;;;;3.72;1.85;;;;;;;14.44;66.22;100829.09;5032053;28;20038;-69
2022/06/15 00:22:31;;;;;;;7.90;2.00;;;;;;;14.42;66.25;100836.19;5032401;28;20116;-70
2022/06/15 00:24:56;;;;;;;4.50;2.47;;;;;;;14.32;66.57;100831.19;5032276;28;20561;-69
2022/06/15 00:27:21;;;;;;;6.95;2.63;;;;;;;14.40;66.60;100822.16;5032098;28;20448;-69
2022/06/15 00:29:47;;;;;;;5.50;2.10;;;;;;;14.34;66.89;100824.09;5032549;28;20111;-69
2022/06/15 00:32:12;;;;;;;6.22;2.28;;;;;;;14.37;66.84;100829.31;5014620;28;20689;-69
2022/06/15 00:34:38;;;;;;;3.63;1.75;;;;;;;14.30;67.46;100833.91;5014650;28;20363;-69
2022/06/15 00:37:05;;;;;;;6.43;2.30;;;;;;;14.36;66.94;100823.13;5032071;28;20500;-69
2022/06/15 00:39:30;;;;;;;5.55;2.17;;;;;;;14.37;66.91;100834.59;5014952;28;20029;-69
2022/06/15 00:41:56;;;;;;;5.22;2.03;;;;;;;14.40;66.89;100837.13;5014363;28;20045;-67
2022/06/15 00:44:22;;;;;;;8.02;2.03;;;;;;;14.35;67.33;100831.97;5014474;28;20033;-69
2022/06/15 00:46:49;;;;;;;5.35;2.20;;;;;;;14.29;67.61;100837.47;5032214;28;20045;-69
2022/06/15 00:49:20;;;;;;;3.75;1.90;;;;;;;14.23;68.52;100833.22;5014374;28;20034;-70
2022/06/15 00:51:49;;;;;;;3.00;1.80;;;;;;;14.23;68.24;100832.34;5032041;28;20045;-70
2022/06/15 00:54:16;;;;;;;6.45;2.40;;;;;;;14.14;69.15;100830.84;5032006;28;20037;-70
2022/06/15 00:56:41;;;;;;;5.05;1.92;;;;;;;14.20;68.66;100830.69;5032249;28;20033;-70
2022/06/15 00:59:15;;;;;;;5.75;2.30;;;;;;;14.16;69.58;100828.16;5031952;28;20030;-69
2022/06/15 01:01:41;;;;;;;3.90;1.77;;;;;;;14.20;69.14;100827.16;5026946;28;20029;-70
2022/06/15 01:04:07;;;;;;;5.22;1.98;;;;;;;14.25;68.76;100841.97;5031942;28;20037;-70
2022/06/15 01:06:48;;;;;;;4.70;2.05;;;;;;;14.28;68.78;100835.72;5025809;28;20482;-70
2022/06/15 01:09:27;;;;;;;4.60;2.13;;;;;;;14.26;69.22;100835.78;5031847;28;20038;-69
2022/06/15 01:12:04;;;;;;;5.07;1.90;;;;;;;14.24;70.07;100836.72;5032162;28;20029;-69
2022/06/15 01:15:32;;;;;;;4.32;1.70;;;;;;;14.28;70.12;100826.03;5035341;28;20469;-70
2022/06/15 01:18:21;;;;;;;4.72;1.95;;;;;;;14.29;69.23;100826.91;4936126;29;20582;-70
2022/06/15 01:21:05;;;;;;;3.22;1.67;;;;;;;14.27;69.34;100820.78;5031347;28;20041;-69
2022/06/15 01:23:55;;;;;;;4.88;2.00;;;;;;;14.29;69.89;100822.47;5035357;28;20041;-69
2022/06/15 01:26:48;;;;;;;7.28;2.05;;;;;;;14.29;69.73;100813.69;5050474;28;20078;-69
2022/06/15 01:30:01;;;;;;;3.65;1.60;;;;;;;14.33;70.01;100822.38;5035438;28;20041;-69
2022/06/15 01:32:50;;;;;;;10.15;2.25;;;;;;;14.18;70.85;100826.34;5028260;28;20049;-69
2022/06/15 01:35:48;;;;;;;3.65;1.70;;;;;;;14.22;70.93;100825.34;5034841;28;20077;-70
2022/06/15 01:38:40;;;;;;;4.95;1.75;;;;;;;14.15;72.05;100831.72;5034951;28;20195;-68
2022/06/15 01:41:17;;;;;;;3.78;1.60;;;;;;;14.22;70.38;100825.34;5034649;28;20457;-68
2022/06/15 01:43:55;;;;;;;6.88;1.88;;;;;;;14.03;72.42;100820.56;5030341;28;20098;-69
2022/06/15 01:46:22;;;;;;;5.53;2.10;;;;;;;14.11;71.17;100828.28;5034628;28;20106;-69
2022/06/15 01:48:50;;;;;;;7.32;1.90;;;;;;;13.99;72.01;100829.50;5034738;28;20033;-69
2022/06/15 01:51:22;;;;;;;7.13;2.50;;;;;;;14.16;71.57;100830.78;5034666;28;20123;-69
2022/06/15 01:53:54;;;;;;;4.40;2.38;;;;;;;14.24;70.98;100834.06;5034895;28;20053;-70
2022/06/15 01:56:24;;;;;;;4.90;2.75;;;;;;;14.22;71.43;100828.84;5034960;28;20037;-69
2022/06/15 01:59:06;;;;;;;7.60;2.90;;;;;;;14.12;72.46;100831.78;5050208;28;20045;-69
2022/06/15 02:01:41;;;;;;;4.90;2.33;;;;;;;14.28;71.23;100826.03;5028450;28;20076;-70
2022/06/15 02:04:34;;;;;;;5.72;2.50;;;;;;;14.34;70.94;100830.25;5016470;28;20104;-70
2022/06/15 02:07:23;;;;;;;5.13;2.80;;;;;;;14.30;72.26;100826.84;5016888;28;20040;-70
2022/06/15 02:09:57;;;;;;;5.75;2.42;;;;;;;14.27;71.59;100826.06;5030464;28;20018;-69
2022/06/15 02:12:31;;;;;;;6.05;2.35;;;;;;;14.14;72.09;100827.34;5033114;28;20034;-71
2022/06/15 02:14:59;;;;;;;3.72;2.22;;;;;;;13.98;73.25;100825.13;5034635;28;20029;-70
2022/06/15 02:17:39;;;;;;;5.07;2.38;;;;;;;14.05;72.90;100831.97;5033480;28;20037;-68
2022/06/15 02:20:11;;;;;;;8.20;2.75;;;;;;;14.13;72.59;100834.41;5033989;28;20504;-69
2022/06/15 02:22:39;;;;;;;11.32;5.85;;;;;;;14.05;73.73;100837.28;5028534;28;20061;-68
2022/06/15 02:25:11;;;;;;;13.70;9.40;;;;;;;14.18;73.47;100844.84;5033641;28;20036;-69
2022/06/15 02:27:39;;;;;;;13.43;9.95;;;;;;;14.21;73.26;100848.25;5028723;28;20079;-70
2022/06/15 02:30:11;;;;;;;14.35;11.55;;;;;;;14.25;73.66;100846.41;5033876;28;20112;-70
2022/06/15 02:32:37;;;;;;;11.43;9.45;;;;;;;14.41;73.03;100841.53;5028314;28;20088;-69
2022/06/15 02:35:04;;;;;;;13.35;8.48;;;;;;;14.54;73.25;100842.91;5033702;28;20120;-69
2022/06/15 02:37:30;;;;;;;10.13;6.35;;;;;;;14.60;72.67;100844.47;5033714;28;20057;-69
2022/06/15 02:39:56;;;;;;;8.43;4.90;;;;;;;14.77;72.29;100850.13;5033736;28;20068;-68
2022/06/15 02:42:28;;;;;;;7.85;4.18;;;;;;;14.71;73.93;100852.97;5033973;28;20107;-70
2022/06/15 02:44:57;;;;;;;9.25;4.00;;;;;;;14.75;73.42;100838.72;5033807;28;20124;-70
2022/06/15 02:47:27;;;;;;;7.00;3.03;;;;;;;14.85;74.00;100849.91;5033621;28;20087;-70
2022/06/15 02:49:53;;;;;;;6.32;2.50;;;;;;;14.99;72.83;100845.00;5033681;28;20029;-68
2022/06/15 02:52:25;;;;;;;7.10;2.65;;;;;;;15.07;73.98;100850.06;5033549;28;20091;-69
2022/06/15 02:54:55;;;;;;;7.55;3.28;;;;;;;15.00;75.10;100844.09;5033370;28;20112;-69
2022/06/15 02:57:21;;;;;;;5.70;2.22;;;;;;;15.21;73.02;100845.19;5033580;28;20493;-70
2022/06/15 02:59:47;;;;;;;6.53;2.60;;;;;;;15.26;72.58;100859.13;5033732;28;20033;-70
2022/06/15 03:02:14;;;;;;;6.60;2.78;;;;;;;15.18;73.80;100853.22;5033183;28;20075;-70
2022/06/15 03:04:47;;;;;;;6.07;2.60;;;;;;;15.23;73.85;100853.91;5033403;28;20052;-70
2022/06/15 03:07:15;;;;;;;4.60;2.40;;;;;;;15.18;73.75;100845.28;5015360;28;20033;-70
2022/06/15 03:09:41;;;;;;;5.65;2.75;;;;;;;15.18;74.08;100861.16;5033409;28;20037;-70
2022/06/15 03:12:07;;;;;;;8.35;2.97;;;;;;;15.09;74.98;100853.53;5015724;28;20099;-70
2022/06/15 03:14:33;;;;;;;6.43;2.97;;;;;;;15.08;75.18;100851.78;5033384;28;20029;-70
2022/06/15 03:16:59;;;;;;;4.72;2.22;;;;;;;14.99;75.76;100858.25;5033235;28;20032;-68
2022/06/15 03:19:25;;;;;;;10.48;3.00;;;;;;;14.92;76.14;100860.22;5032113;28;20465;-71
2022/06/15 03:21:51;;;;;;;5.25;2.53;;;;;;;14.98;75.62;100857.38;5033284;28;20552;-70
2022/06/15 03:24:16;;;;;;;8.60;2.65;;;;;;;15.12;75.33;100861.34;5033024;28;20112;-71
2022/06/15 03:26:42;;;;;;;5.10;2.85;;;;;;;15.13;75.43;100857.81;5015508;28;20033;-71
2022/06/15 03:29:08;;;;;;;5.82;2.88;;;;;;;15.23;74.80;100854.78;5014955;28;20033;-71
2022/06/15 03:31:33;;;;;;;8.32;3.00;;;;;;;14.97;76.85;100862.72;5026721;28;20406;-70
2022/06/15 03:33:58;;;;;;;6.72;2.65;;;;;;;15.09;76.33;100862.31;5032688;28;20033;-69
2022/06/15 03:36:24;;;;;;;7.18;2.78;;;;;;;15.15;75.56;100861.25;5031209;28;20382;-70
2022/06/15 03:38:49;;;;;;;6.68;2.92;;;;;;;15.27;74.79;100866.13;5048648;28;20163;-70
2022/06/15 03:41:19;;;;;;;5.50;2.50;;;;;;;15.39;74.59;100857.78;4985398;28;20053;-69
2022/06/15 03:43:44;;;;;;;4.90;2.80;;;;;;;15.24;75.50;100863.59;5014878;28;20041;-70
2022/06/15 03:46:11;;;;;;;8.60;2.67;;;;;;;15.45;74.40;100862.88;5016069;28;20052;-71
2022/06/15 03:48:37;;;;;;;5.55;2.75;;;;;;;15.51;74.73;100867.09;5015621;28;20037;-69
2022/06/15 03:51:03;;;;;;;9.43;2.80;;;;;;;15.48;75.09;100868.06;5014051;28;20046;-71
2022/06/15 03:53:29;;;;;;;4.35;2.65;;;;;;;15.63;73.96;100863.16;5014136;28;20026;-70
2022/06/15 03:55:54;;;;;;;5.40;2.47;;;;;;;15.76;73.30;100864.50;5013739;28;20038;-70
2022/06/15 03:58:20;;;;;;;5.45;2.35;;;;;;;15.80;73.25;100874.06;5014144;28;20048;-70
2022/06/15 04:00:46;;;;;;;5.25;2.50;;;;;;;15.99;72.21;100868.97;5013855;28;20038;-69
2022/06/15 04:03:11;;;;;;;5.95;2.83;;;;;;;16.07;72.00;100871.34;5016343;28;20036;-69
2022/06/15 04:05:42;;;;;;;6.28;2.40;;;;;;;16.16;71.95;100863.06;4999594;28;20033;-70
2022/06/15 04:10:58;;;;;;;7.22;2.55;;;;;;;16.48;70.54;100869.81;5033639;28;20094;-69
2022/06/15 04:13:24;;;;;;;4.97;2.85;;;;;;;16.36;71.10;100871.13;5033346;28;20112;-70
2022/06/15 04:15:51;;;;;;;6.13;2.25;;;;;;;16.33;71.23;100873.91;5033820;28;20480;-70
2022/06/15 04:18:16;;;;;;;6.68;2.47;;;;;;;16.44;70.99;100871.72;5033911;28;20091;-70
2022/06/15 04:20:42;;;;;;;6.45;2.08;;;;;;;16.61;70.16;100871.06;5033597;28;20041;-70
2022/06/15 04:23:11;;;;;;;5.60;2.63;;;;;;;16.53;70.77;100875.78;5015914;28;20037;-70
2022/06/15 04:25:40;;;;;;;5.57;2.38;;;;;;;16.55;70.82;100889.84;5033375;28;20041;-69
2022/06/15 04:28:08;;;;;;;7.38;2.47;;;;;;;16.67;70.21;100889.38;5015978;28;20033;-70
2022/06/15 04:30:33;;;;;;;4.82;2.10;;;;;;;16.81;69.62;100882.72;5015572;28;20033;-69
2022/06/15 04:32:59;;;;;;;5.20;2.40;;;;;;;16.98;69.29;100886.41;5014220;28;20087;-70
2022/06/15 04:35:25;;;;;;;6.75;2.58;;;;;;;16.92;69.22;100883.16;5032815;28;20037;-70
2022/06/15 04:37:50;;;;;;;5.55;2.40;;;;;;;16.85;69.75;100884.31;5033151;28;20041;-70
2022/06/15 04:40:16;;;;;;;4.45;2.30;;;;;;;17.05;68.79;100887.03;5032799;28;20037;-70
2022/06/15 04:42:42;;;;;;;7.65;2.30;;;;;;;17.41;67.50;100882.00;5048523;28;20048;-71
2022/06/15 04:45:09;;;;;;;6.57;2.30;;;;;;;17.57;66.95;100884.00;5015365;28;20485;-71
2022/06/15 04:47:35;;;;;;;7.00;2.38;;;;;;;17.90;66.10;100903.84;5035320;28;20037;-70
2022/06/15 04:50:00;;;;;;;7.25;3.83;;;;;;;18.01;65.64;100894.53;5036974;28;20096;-70
2022/06/15 04:52:26;;;;;;;7.55;3.88;;;;;;;17.92;65.93;100886.03;5036546;28;20489;-70
2022/06/15 04:54:51;;;;;;;6.72;3.00;;;;;;;18.13;65.25;100891.31;5051919;28;20084;-70
2022/06/15 04:57:17;;;;;;;3.15;2.00;;;;;;;18.34;64.42;100900.97;5036493;28;20118;-70
2022/06/15 04:59:42;;;;;;;5.05;2.20;;;;;;;18.27;64.67;100901.34;5016791;28;20397;-70
2022/06/15 05:02:10;;;;;;;6.80;2.22;;;;;;;18.31;64.40;100890.50;4999155;28;20045;-70
2022/06/15 05:04:35;;;;;;;4.97;2.03;;;;;;;18.36;64.19;100901.78;5016754;28;20030;-69
2022/06/15 05:07:01;;;;;;;5.90;2.22;;;;;;;18.46;63.75;100903.09;5016586;28;20389;-69
2022/06/15 05:09:26;;;;;;;3.55;1.58;;;;;;;18.56;63.30;100902.69;4998706;28;20124;-70
2022/06/15 05:11:52;;;;;;;4.55;2.08;;;;;;;18.62;63.04;100908.56;5016794;28;20034;-70
2022/06/15 05:14:17;;;;;;;6.72;1.98;;;;;;;18.82;61.94;100904.13;4999681;28;20466;-70
2022/06/15 05:16:43;;;;;;;4.70;1.60;;;;;;;18.94;61.92;100907.06;5016554;28;20076;-70
2022/06/15 05:19:08;;;;;;;6.97;2.05;;;;;;;19.01;61.78;100907.63;5007747;28;20127;-70
2022/06/15 05:21:42;;;;;;;3.53;1.50;;;;;;;19.23;60.63;100904.81;5023354;28;20195;-70
2022/06/15 05:24:09;;;;;;;3.58;1.65;;;;;;;19.10;61.11;100916.97;5036186;28;20036;-70
2022/06/15 05:26:35;;;;;;;3.40;1.60;;;;;;;19.13;60.79;100911.50;5040813;28;20033;-69
2022/06/15 05:29:00;;;;;;;3.35;1.25;;;;;;;19.67;59.65;100909.75;5037927;28;20082;-69
2022/06/15 05:31:26;;;;;;;4.53;1.88;;;;;;;19.62;59.25;100914.41;5029249;28;20041;-70
2022/06/15 05:33:54;;;;;;;4.22;1.30;;;;;;;19.64;58.87;100915.22;5040411;28;20052;-70
2022/06/15 05:36:23;;;;;;;4.03;1.60;;;;;;;19.79;58.35;100914.44;5013313;28;20038;-68
2022/06/15 05:38:48;;;;;;;5.43;1.75;;;;;;;20.01;58.07;100923.97;5031746;28;20063;-69
2022/06/15 05:41:14;;;;;;;3.53;1.38;;;;;;;20.12;57.57;100921.63;5035561;28;20057;-70
2022/06/15 05:46:35;;;;;;;4.05;1.40;;;;;;;20.23;56.67;100919.25;5034218;28;20124;-69
2022/06/15 05:49:03;;;;;;;5.43;1.67;;;;;;;20.03;57.30;100924.75;5025954;28;20052;-68
2022/06/15 05:51:29;;;;;;;5.18;1.65;;;;;;;20.24;56.87;100917.44;5050687;28;20057;-70
2022/06/15 05:53:55;;;;;;;3.10;1.20;;;;;;;20.42;56.56;100925.28;5048854;28;20103;-69
2022/06/15 05:56:22;;;;;;;3.70;1.38;;;;;;;20.49;55.72;100919.69;5037751;28;20548;-69
2022/06/15 05:58:49;;;;;;;5.25;1.77;;;;;;;20.43;56.21;100920.84;5037663;28;20404;-69
2022/06/15 06:01:25;;;;;;;3.38;1.58;;;;;;;20.45;56.07;100923.44;5036168;28;20120;-70
2022/06/15 06:03:51;;;;;;;4.28;1.42;;;;;;;20.30;56.44;100917.97;5029302;28;20072;-70
2022/06/15 06:06:17;;;;;;;3.00;1.15;;;;;;;20.42;56.14;100916.44;4999978;28;20385;-69
2022/06/15 06:08:43;;;;;;;3.90;1.30;;;;;;;20.37;56.04;100926.50;5037281;28;20465;-68
2022/06/15 06:11:08;;;;;;;2.00;1.20;;;;;;;20.71;55.33;100932.72;5033061;28;20052;-69
2022/06/15 06:13:34;;;;;;;4.38;1.40;;;;;;;20.66;54.96;100927.63;5034498;28;20029;-69
2022/06/15 06:15:59;;;;;;;4.53;1.70;;;;;;;20.62;54.89;100926.91;5039647;28;20037;-69
2022/06/15 06:18:25;;;;;;;5.25;2.40;;;;;;;20.87;54.64;100929.13;5032143;28;20036;-69
2022/06/15 06:20:51;;;;;;;3.53;1.52;;;;;;;20.75;54.40;100926.28;5033345;28;20401;-69
2022/06/15 06:23:17;;;;;;;2.25;1.25;;;;;;;20.64;54.52;100926.84;5034960;28;20087;-69
2022/06/15 06:25:44;;;;;;;4.00;1.30;;;;;;;20.58;54.72;100928.03;5037086;28;20037;-69
2022/06/15 06:28:20;;;;;;;2.45;1.20;;;;;;;20.74;53.76;100930.72;5036904;28;20133;-68
2022/06/15 06:30:46;;;;;;;3.90;1.20;;;;;;;21.07;53.26;100937.81;5037419;28;20025;-68
2022/06/15 06:33:11;;;;;;;2.80;1.20;;;;;;;20.97;52.93;100941.94;5021200;28;20037;-69
2022/06/15 06:35:36;;;;;;;3.10;1.20;;;;;;;21.12;52.52;100925.91;5019292;28;20037;-69
2022/06/15 06:38:02;;;;;;;3.58;1.10;;;;;;;21.32;52.43;100929.25;5037828;28;20104;-69
2022/06/15 06:40:28;;;;;;;4.63;0.95;;;;;;;21.53;51.66;100936.06;5036820;28;20081;-69
2022/06/15 06:42:54;;;;;;;3.97;1.25;;;;;;;21.54;51.28;100931.56;5049929;28;20029;-69
2022/06/15 06:45:19;;;;;;;5.30;0.90;;;;;;;21.78;50.93;100935.47;5036792;28;20037;-68
2022/06/15 06:47:44;;;;;;;4.22;0.90;;;;;;;21.86;50.14;100935.88;5036443;28;20056;-67
2022/06/15 06:50:10;;;;;;;2.72;0.90;;;;;;;21.88;50.23;100936.63;5036547;28;20489;-68
2022/06/15 06:52:36;;;;;;;3.40;0.90;;;;;;;21.92;49.90;100947.16;5021073;28;20045;-68
2022/06/15 06:55:01;;;;;;;2.80;0.90;;;;;;;21.57;50.26;100942.09;5039736;28;20397;-68
2022/06/15 06:57:26;;;;;;;5.78;1.02;;;;;;;21.32;50.99;100948.84;5036285;28;20039;-68
2022/06/15 06:59:52;;;;;;;3.22;1.00;;;;;;;21.49;50.48;100945.19;5019245;28;20469;-68
2022/06/15 07:02:17;;;;;;;5.05;2.65;;;;;;;21.55;50.20;100947.53;5040331;28;20491;-69
2022/06/15 07:04:43;;;;;;;3.53;1.08;;;;;;;21.69;49.93;100945.84;5036432;28;20044;-69
2022/06/15 07:07:08;;;;;;;2.08;0.98;;;;;;;21.84;49.77;100947.63;5043514;28;20096;-69
2022/06/15 07:09:34;;;;;;;3.33;1.20;;;;;;;21.81;49.30;100954.00;5050139;28;20111;-69
2022/06/15 07:12:00;;;;;;;3.53;1.10;;;;;;;21.81;49.87;100948.66;5041208;28;20124;-70
2022/06/15 07:14:25;;;;;;;2.00;0.90;;;;;;;21.82;49.74;100950.41;5033389;28;20116;-69
2022/06/15 07:16:50;;;;;;;2.83;1.00;;;;;;;21.72;50.08;100946.53;5033091;28;20120;-69
2022/06/15 07:19:16;;;;;;;2.95;1.00;;;;;;;21.81;49.62;100945.97;5028495;28;20057;-69
2022/06/15 07:21:41;;;;;;;5.90;1.13;;;;;;;21.50;49.89;100948.72;5015650;28;20037;-69
2022/06/15 07:24:07;;;;;;;3.78;1.00;;;;;;;21.54;49.89;100955.63;5014420;28;20047;-69
2022/06/15 07:26:42;;;;;;;2.78;0.95;;;;;;;21.68;49.06;100952.16;5036915;28;20500;-69
2022/06/15 07:29:10;;;;;;;3.13;0.90;;;;;;;21.63;50.06;100955.09;5032217;28;20025;-69
2022/06/15 07:31:38;;;;;;;2.28;1.00;;;;;;;21.52;49.22;100954.88;5042885;28;20040;-69
2022/06/15 07:34:05;;;;;;;2.95;1.10;;;;;;;21.73;49.65;100958.94;5032796;28;20037;-69
2022/06/15 07:36:31;;;;;;;2.60;0.80;;;;;;;21.73;49.22;100953.59;5033038;28;20128;-69
2022/06/15 07:38:57;;;;;;;4.10;1.00;;;;;;;21.97;48.82;100950.41;5036857;28;20116;-69
2022/06/15 07:41:24;;;;;;;3.20;1.00;;;;;;;22.11;48.57;100958.47;5032637;28;20025;-69
2022/06/15 07:43:51;;;;;;;2.22;0.80;;;;;;;22.15;48.34;100960.06;5032684;28;20029;-68
2022/06/15 07:46:17;;;;;;;3.67;1.05;;;;;;;22.17;47.97;100954.59;5037032;28;20477;-69
2022/06/15 07:51:38;;;;;;;2.67;0.90;;;;;;;21.82;48.42;100966.44;5051131;28;20107;-69
2022/06/15 07:54:08;;;;;;;3.53;1.05;;;;;;;21.84;47.93;100972.56;5015644;28;20092;-67
2022/06/15 07:56:34;;;;;;;3.75;0.80;;;;;;;21.79;48.30;100961.28;5032664;28;20041;-69
2022/06/15 07:58:59;;;;;;;4.10;0.60;;;;;;;21.64;48.62;100967.53;5032141;28;20029;-68
2022/06/15 08:01:25;;;;;;;2.40;0.80;;;;;;;21.65;48.25;100971.91;5032657;28;20041;-68
2022/06/15 08:03:51;;;;;;;2.22;0.90;;;;;;;21.38;48.23;100983.25;5032282;28;20041;-68
2022/06/15 08:06:17;;;;;;;2.65;0.70;;;;;;;21.50;48.71;100981.66;5014890;28;20041;-68
2022/06/15 08:08:43;;;;;;;2.67;0.85;;;;;;;21.43;48.96;100983.00;5032010;28;20061;-69
2022/06/15 08:11:09;;;;;;;1.90;0.82;;;;;;;21.46;49.00;100981.94;5032794;28;20033;-69
2022/06/15 08:13:35;;;;;;;2.13;0.77;;;;;;;21.50;48.72;100973.66;5032744;28;20040;-69
2022/06/15 08:16:01;;;;;;;3.25;0.82;;;;;;;21.43;48.88;100982.13;5032160;28;20075;-69
2022/06/15 08:18:30;;;;;;;2.95;0.90;;;;;;;21.55;48.61;100990.31;5032483;28;20086;-69
2022/06/15 08:21:03;;;;;;;3.97;0.80;;;;;;;21.43;48.12;100974.97;5014469;28;20095;-68
2022/06/15 08:23:31;;;;;;;3.15;1.20;;;;;;;21.22;49.07;100985.03;5030918;28;20026;-69
2022/06/15 08:26:01;;;;;;;5.00;0.90;;;;;;;21.68;47.77;100993.13;5018682;28;20033;-69
2022/06/15 08:28:32;;;;;;;3.28;1.05;;;;;;;21.81;47.60;100986.09;5030851;28;20037;-69
2022/06/15 08:30:58;;;;;;;1.50;0.80;;;;;;;22.22;46.94;100987.28;5036356;28;20033;-69
2022/06/15 08:33:24;;;;;;;1.85;0.90;;;;;;;22.00;47.47;100996.56;5030080;28;20029;-69
2022/06/15 08:35:50;;;;;;;1.90;0.77;;;;;;;21.93;47.67;100980.97;5035715;28;20033;-69
2022/06/15 08:38:18;;;;;;;2.50;0.70;;;;;;;22.03;47.36;100977.69;5036602;28;20033;-69
2022/06/15 08:40:50;;;;;;;3.65;0.93;;;;;;;22.42;45.74;100975.34;5036378;28;20108;-69
2022/06/15 08:43:40;;;;;;;2.55;1.05;;;;;;;22.04;45.97;100981.22;5035401;28;20040;-69
2022/06/15 08:46:15;;;;;;;2.40;0.77;;;;;;;21.79;46.96;100985.34;5035691;28;20481;-69
2022/06/15 08:49:28;;;;;;;3.38;1.10;;;;;;;22.14;46.02;100985.06;5036048;28;20040;-69
2022/06/15 08:52:01;;;;;;;3.00;0.90;;;;;;;22.47;44.45;100994.69;5035630;28;20072;-69
2022/06/15 08:54:31;;;;;;;4.32;1.05;;;;;;;22.50;44.86;100990.03;5021202;28;20041;-70
2022/06/15 08:57:05;;;;;;;3.40;0.90;;;;;;;22.82;44.48;100982.66;5034064;28;20091;-69
2022/06/15 08:59:54;;;;;;;2.58;0.98;;;;;;;22.80;43.24;100989.03;5033856;28;20042;-67
2022/06/15 09:02:22;;;;;;;3.50;1.10;;;;;;;22.58;44.64;100971.66;5034294;28;20029;-68
2022/06/15 09:05:01;;;;;;;2.88;0.75;;;;;;;22.15;43.84;100980.59;5015945;28;20362;-68
2022/06/15 09:07:54;;;;;;;4.90;0.77;;;;;;;22.62;43.29;100983.00;5034107;28;20032;-68
2022/06/15 09:10:32;;;;;;;2.83;0.60;;;;;;;22.44;43.52;100977.00;5043267;28;20030;-68
2022/06/15 09:13:36;;;;;;;3.05;0.50;;;;;;;22.73;43.38;100975.16;5035508;28;20025;-69
2022/06/15 09:16:28;;;;;;;2.58;1.00;;;;;;;24.01;41.06;100973.94;4966414;28;20470;-68
2022/06/15 09:19:06;;;;;;;1.08;0.50;;;;;;;22.72;44.04;100975.28;5029847;28;20049;-69
2022/06/15 09:21:41;;;;;;;1.20;0.65;;;;;;;22.49;43.11;100982.06;5035363;28;20041;-68
2022/06/15 09:24:16;;;;;;;1.13;0.63;;;;;;;22.44;43.82;100987.69;5037519;28;20021;-69
2022/06/15 09:26:49;;;;;;;2.53;0.65;;;;;;;22.82;42.37;100981.75;5042534;28;20045;-68
2022/06/15 09:29:34;;;;;;;1.98;0.60;;;;;;;23.39;41.20;100975.47;5017127;28;20061;-68
2022/06/15 09:32:21;;;;;;;3.63;0.50;;;;;;;23.59;41.13;100959.78;5030820;28;20045;-69
2022/06/15 09:35:13;;;;;;;1.98;0.60;;;;;;;23.75;39.92;100970.38;5043891;28;20048;-69
2022/06/15 09:37:42;;;;;;;2.70;0.77;;;;;;;23.53;40.16;100992.34;5049062;28;20421;-69
2022/06/15 09:40:09;;;;;;;1.38;0.50;;;;;;;23.42;40.24;100978.81;5020160;28;20040;-67
2022/06/15 09:42:52;;;;;;;2.95;0.80;;;;;;;23.39;39.96;100970.97;5031946;28;20155;-68
2022/06/15 09:45:35;;;;;;;16.73;1.92;;;;;;;23.50;40.31;100978.28;5034638;28;20377;-68
2022/06/15 09:48:23;;;;;;;1.92;0.57;;;;;;;23.99;40.42;100964.31;5031032;28;20033;-68
2022/06/15 09:51:08;;;;;;;1.95;0.68;;;;;;;24.11;39.38;100967.97;5029231;28;20179;-68
2022/06/15 09:53:47;;;;;;;1.40;0.47;;;;;;;23.51;40.27;100972.84;5034990;28;20030;-69
2022/06/15 09:56:15;;;;;;;2.05;0.55;;;;;;;23.78;39.69;100974.69;5034391;28;20086;-69
2022/06/15 09:58:46;;;;;;;2.45;0.47;;;;;;;23.62;39.14;100977.50;5034646;28;20440;-69
2022/06/15 10:01:13;;;;;;;1.52;0.50;;;;;;;23.27;41.00;100978.00;5035215;28;20039;-68
2022/06/15 10:03:48;;;;;;;1.63;0.50;;;;;;;23.47;40.95;100970.47;5041989;28;20041;-69
2022/06/15 10:06:23;;;;;;;1.33;0.60;;;;;;;23.56;40.51;100973.38;5034703;28;20037;-69
2022/06/15 10:08:49;;;;;;;4.95;0.63;;;;;;;23.27;42.02;100974.44;5029051;28;20120;-69
2022/06/15 10:11:21;;;;;;;0.93;0.30;;;;;;;23.38;41.65;100971.94;5034246;28;20113;-69
2022/06/15 10:13:46;;;;;;;3.20;0.55;;;;;;;23.44;41.23;100976.03;5034444;28;20034;-69
2022/06/15 10:16:15;;;;;;;0.85;0.30;;;;;;;23.36;39.45;100976.53;5016780;28;20031;-69
2022/06/15 10:18:46;;;;;;;2.47;0.40;;;;;;;23.59;39.55;100967.81;5034432;28;20103;-69
2022/06/15 10:21:14;;;;;;;1.70;0.40;;;;;;;23.87;38.92;100981.25;5033993;28;20036;-69
2022/06/15 10:24:03;;;;;;;1.70;0.50;;;;;;;23.97;38.62;100987.69;5043258;28;20465;-69
2022/06/15 10:26:31;;;;;;;3.03;0.60;;;;;;;23.75;39.22;100975.72;5026415;28;20033;-69
2022/06/15 10:28:59;;;;;;;2.20;0.50;;;;;;;23.80;39.74;100980.78;5034157;28;20033;-69
2022/06/15 10:31:30;;;;;;;0.70;0.40;;;;;;;24.17;37.93;100979.13;5016178;28;20469;-69
2022/06/15 10:33:57;;;;;;;0.77;0.40;;;;;;;24.46;37.41;100969.09;5016330;28;20137;-70
2022/06/15 10:36:32;;;;;;;2.03;0.40;;;;;;;24.73;36.53;100965.38;5033852;28;20061;-70
2022/06/15 10:39:17;;;;;;;2.70;0.60;;;;;;;24.62;36.93;100968.84;5034109;28;20033;-69
2022/06/15 10:41:47;;;;;;;1.52;0.60;;;;;;;24.83;37.43;100971.81;5033913;28;20052;-70
2022/06/15 10:44:34;;;;;;;1.60;0.40;;;;;;;24.40;35.91;100984.75;5033196;28;20059;-69
2022/06/15 10:47:07;;;;;;;1.45;0.47;;;;;;;24.52;36.77;100981.22;5023623;28;20026;-69
2022/06/15 10:49:42;;;;;;;1.63;0.60;;;;;;;24.77;36.45;100969.56;5033652;28;20396;-69
2022/06/15 10:52:44;;;;;;;2.97;0.60;;;;;;;24.95;35.97;100981.69;5031435;28;20041;-66
2022/06/15 11:04:07;;;;;;;1.55;0.40;;;;;;;25.14;36.33;100975.03;4997812;28;20041;-69
2022/06/15 11:07:00;;;;;;;0.73;0.40;;;;;;;25.02;36.96;100977.59;5033135;28;20069;-70
2022/06/15 11:09:33;;;;;;;1.13;0.50;;;;;;;24.85;38.02;100967.19;5033336;28;20033;-70
2022/06/15 11:12:00;;;;;;;;;;;;;;;24.69;36.72;100980.00;5033879;28;20033;-70
2022/06/15 11:14:43;;;;;;;1.75;0.45;;;;;;;24.93;37.18;100980.06;5015058;28;19936;-69
2022/06/15 11:19:59;;;;;;;2.70;0.38;;;;;;;25.28;37.51;100983.75;5032866;28;19919;-70
2022/06/15 11:22:27;;;;;;;2.70;0.70;;;;;;;25.13;37.68;100987.56;4999872;28;20068;-70
2022/06/15 11:25:13;;;;;;;3.63;0.50;;;;;;;25.31;37.01;100980.84;5032863;28;20033;-70
2022/06/15 11:27:46;;;;;;;3.08;0.80;;;;;;;25.32;37.21;100984.41;5047728;28;20029;-69
2022/06/15 11:30:30;;;;;;;1.95;0.50;;;;;;;25.47;36.55;100971.66;5033462;28;20041;-70
2022/06/15 11:33:01;;;;;;;1.75;0.68;;;;;;;25.59;36.73;100969.88;5017110;28;20025;-69
2022/06/15 11:35:41;;;;;;;2.20;0.52;;;;;;;25.72;35.61;100974.19;5033836;28;20022;-70
2022/06/15 11:38:42;;;;;;;2.55;0.47;;;;;;;25.71;36.15;100982.41;5032812;28;20490;-70
2022/06/15 11:41:19;;;;;;;2.58;0.70;;;;;;;25.47;36.79;100979.72;5033777;28;20041;-69
2022/06/15 11:43:47;;;;;;;1.63;0.57;;;;;;;25.74;37.05;100963.34;5034136;28;20029;-70
2022/06/15 11:46:37;;;;;;;1.92;0.40;;;;;;;25.74;36.36;100964.19;5034384;28;20096;-71
2022/06/15 11:49:30;;;;;;;4.95;1.15;;;;;;;25.95;36.34;100959.03;5033678;28;20068;-71
2022/06/15 11:52:03;;;;;;;;;;;;;;;26.02;36.99;100952.19;5034164;28;20132;-71
2022/06/15 11:54:46;;;;;;;2.15;0.65;;;;;;;25.95;37.12;100950.09;5016456;28;19978;-71
2022/06/15 11:57:23;;;;;;;1.92;0.40;;;;;;;25.79;37.26;100955.78;5032978;28;20041;-70
2022/06/15 11:59:48;;;;;;;2.42;0.73;;;;;;;25.68;38.12;100951.19;5033513;28;20393;-70
2022/06/15 12:02:39;;;;;;;1.00;0.60;;;;;;;25.47;38.12;100945.59;5033789;28;20030;-71